Time;durP1;ratioP1;P1;durP2;ratioP2;P2;SDS_P1;SDS_P2;PMS_P1;PMS_P2;Temp;Humidity;BMP_temperature;BMP_pressure;BME280_temperature;BME280_humidity;BME280_pressure;Samples;Min_cycle;Max_cycle;Signal;HPM_P1;HPM_P2
2023/06/30 00:01:33;;;;;;;10.10;2.75;;;14.90;99.90;;;;;;5048672;28;20033;-78
2023/06/30 00:03:58;;;;;;;10.90;2.80;;;14.90;99.90;;;;;;5048171;28;20028;-78
2023/06/30 00:06:24;;;;;;;7.53;2.90;;;14.90;99.90;;;;;;5049037;28;20113;-78
2023/06/30 00:08:50;;;;;;;8.13;2.85;;;14.90;99.90;;;;;;5049112;28;20040;-78
2023/06/30 00:11:17;;;;;;;7.82;3.05;;;14.90;99.90;;;;;;5048969;28;20456;-78
2023/06/30 00:13:43;;;;;;;7.85;2.90;;;14.80;99.90;;;;;;5041387;28;20036;-78
2023/06/30 00:16:09;;;;;;;9.25;2.90;;;14.80;99.90;;;;;;5049684;28;20036;-78
2023/06/30 00:18:34;;;;;;;8.23;2.90;;;14.80;99.90;;;;;;5049891;28;20039;-78
2023/06/30 00:21:01;;;;;;;6.15;3.03;;;14.80;99.90;;;;;;5049642;28;20115;-78
2023/06/30 00:23:28;;;;;;;5.60;2.95;;;14.80;99.90;;;;;;5049566;28;20095;-79
2023/06/30 00:25:54;;;;;;;9.13;3.03;;;14.80;99.90;;;;;;5049958;28;20378;-78
2023/06/30 00:28:19;;;;;;;8.95;3.17;;;14.80;99.90;;;;;;5049893;28;20083;-78
2023/06/30 00:30:45;;;;;;;7.43;2.90;;;14.70;99.90;;;;;;5047496;28;20069;-79
2023/06/30 00:33:10;;;;;;;7.10;3.17;;;14.60;99.90;;;;;;5049472;28;20036;-78
2023/06/30 00:35:36;;;;;;;5.32;2.78;;;14.60;99.90;;;;;;5049726;28;20037;-78
2023/06/30 00:38:01;;;;;;;8.18;3.65;;;14.50;99.90;;;;;;5049411;28;20119;-78
2023/06/30 00:40:27;;;;;;;6.38;2.70;;;14.50;99.90;;;;;;5048597;28;20044;-78
2023/06/30 00:42:53;;;;;;;8.15;3.20;;;14.50;99.90;;;;;;5057364;28;20033;-78
2023/06/30 00:45:18;;;;;;;6.97;2.97;;;14.40;99.90;;;;;;5049377;28;20033;-78
2023/06/30 00:47:44;;;;;;;12.68;3.10;;;14.40;99.90;;;;;;5049534;28;20044;-79
2023/06/30 00:50:10;;;;;;;9.23;3.28;;;14.40;99.90;;;;;;5049311;28;20044;-78
2023/06/30 00:52:37;;;;;;;6.20;2.70;;;14.30;99.90;;;;;;5049108;28;20059;-78
2023/06/30 00:55:03;;;;;;;8.85;3.50;;;14.30;99.90;;;;;;5049138;28;20501;-78
2023/06/30 00:57:28;;;;;;;8.13;3.20;;;14.20;99.90;;;;;;5049289;28;20036;-78
2023/06/30 00:59:54;;;;;;;8.00;3.20;;;14.20;99.90;;;;;;5049246;28;20033;-78
2023/06/30 01:02:27;;;;;;;6.50;2.85;;;14.20;99.90;;;;;;5049297;28;20112;-78
2023/06/30 01:05:02;;;;;;;15.55;3.17;;;14.20;99.90;;;;;;5049550;28;20057;-78
2023/06/30 01:07:30;;;;;;;6.60;2.92;;;14.20;99.90;;;;;;5049316;28;20033;-78
2023/06/30 01:10:08;;;;;;;4.47;2.55;;;14.20;99.90;;;;;;5048169;28;20128;-77
2023/06/30 01:12:34;;;;;;;7.82;2.83;;;14.10;99.90;;;;;;5047493;28;20044;-78
2023/06/30 01:15:01;;;;;;;9.93;2.95;;;14.10;99.90;;;;;;5047800;28;20073;-78
2023/06/30 01:17:28;;;;;;;8.60;3.10;;;14.10;99.90;;;;;;5032220;28;20108;-77
2023/06/30 01:19:55;;;;;;;6.35;2.67;;;14.00;99.90;;;;;;5031451;28;20037;-78
2023/06/30 01:22:42;;;;;;;7.00;2.90;;;14.00;99.90;;;;;;5047891;28;20136;-78
2023/06/30 01:25:19;;;;;;;8.77;2.95;;;13.90;99.90;;;;;;5048741;28;20407;-78
2023/06/30 01:27:45;;;;;;;9.32;3.05;;;13.90;99.90;;;;;;5048085;28;20037;-78
2023/06/30 01:30:11;;;;;;;6.22;2.55;;;13.90;99.90;;;;;;5048683;28;20064;-78
2023/06/30 01:32:37;;;;;;;8.07;2.80;;;13.90;99.90;;;;;;5048810;28;20044;-78
2023/06/30 01:35:03;;;;;;;5.82;2.90;;;13.90;99.90;;;;;;5049106;28;20037;-78
2023/06/30 01:37:29;;;;;;;5.47;2.88;;;13.90;99.90;;;;;;5049029;28;20037;-77
2023/06/30 01:39:54;;;;;;;7.43;2.95;;;13.90;99.90;;;;;;5050250;28;20086;-77
2023/06/30 01:42:20;;;;;;;9.27;2.70;;;13.90;99.90;;;;;;5050739;28;20120;-77
2023/06/30 01:44:47;;;;;;;7.43;3.10;;;13.80;99.90;;;;;;5052586;28;20036;-78
2023/06/30 01:47:13;;;;;;;5.78;2.35;;;13.90;99.90;;;;;;5050562;28;20081;-78
2023/06/30 01:49:39;;;;;;;9.93;2.78;;;13.80;99.90;;;;;;5035548;28;20037;-78
2023/06/30 01:52:05;;;;;;;8.40;2.53;;;13.80;99.90;;;;;;5050631;28;20033;-78
2023/06/30 01:54:30;;;;;;;6.10;2.40;;;13.80;99.90;;;;;;5051802;28;20044;-78
2023/06/30 01:56:56;;;;;;;6.63;2.80;;;13.70;99.90;;;;;;5051091;28;20033;-78
2023/06/30 01:59:22;;;;;;;8.23;2.60;;;13.70;99.90;;;;;;5051376;28;20044;-77
2023/06/30 02:01:48;;;;;;;10.32;3.08;;;13.70;99.90;;;;;;5051472;28;20508;-78
2023/06/30 02:04:15;;;;;;;6.53;2.85;;;13.70;99.90;;;;;;5050149;28;20075;-78
2023/06/30 02:06:42;;;;;;;7.70;2.50;;;13.60;99.90;;;;;;5051534;28;20458;-77
2023/06/30 02:09:08;;;;;;;6.18;2.97;;;13.60;99.90;;;;;;5050103;28;20119;-77
2023/06/30 02:11:33;;;;;;;8.25;2.75;;;13.60;99.90;;;;;;5034713;28;20120;-77
2023/06/30 02:13:59;;;;;;;10.10;2.65;;;13.60;99.90;;;;;;5067022;28;20095;-77
2023/06/30 02:16:24;;;;;;;6.97;2.60;;;13.60;99.90;;;;;;5051182;28;20036;-78
2023/06/30 02:18:54;;;;;;;5.63;2.70;;;13.60;99.90;;;;;;5051492;28;20139;-77
2023/06/30 02:21:20;;;;;;;6.45;2.65;;;13.60;99.90;;;;;;5046941;28;20048;-78
2023/06/30 02:23:46;;;;;;;9.25;2.60;;;13.60;99.90;;;;;;5050291;28;20033;-78
2023/06/30 02:26:11;;;;;;;6.22;2.28;;;13.50;99.90;;;;;;5034090;28;20140;-77
2023/06/30 02:28:37;;;;;;;6.22;2.40;;;13.50;99.90;;;;;;5050169;28;20047;-77
2023/06/30 02:31:02;;;;;;;7.88;2.40;;;13.50;99.90;;;;;;5049422;28;20049;-78
2023/06/30 02:33:28;;;;;;;6.32;2.30;;;13.50;99.90;;;;;;5050328;28;20520;-79
2023/06/30 02:35:53;;;;;;;4.95;2.40;;;13.40;99.90;;;;;;5034312;28;20035;-78
2023/06/30 02:38:19;;;;;;;7.05;2.45;;;13.40;99.90;;;;;;5033751;28;20041;-78
2023/06/30 02:40:45;;;;;;;6.88;2.95;;;13.40;99.90;;;;;;5049345;28;20440;-78
2023/06/30 02:43:10;;;;;;;4.32;2.38;;;13.40;99.90;;;;;;5050023;28;20502;-78
2023/06/30 02:45:36;;;;;;;9.57;2.58;;;13.40;99.90;;;;;;5050930;28;20089;-77
2023/06/30 02:48:02;;;;;;;9.75;2.97;;;13.40;99.90;;;;;;5050412;28;20045;-77
2023/06/30 02:50:29;;;;;;;5.38;2.35;;;13.30;99.90;;;;;;5049271;28;20049;-77
2023/06/30 02:52:58;;;;;;;5.47;2.63;;;13.30;99.90;;;;;;5048468;28;20086;-78
2023/06/30 02:55:23;;;;;;;7.13;2.70;;;13.30;99.90;;;;;;5051395;28;20400;-78
2023/06/30 02:57:49;;;;;;;7.18;2.40;;;13.30;99.90;;;;;;5033712;28;20040;-78
2023/06/30 03:00:15;;;;;;;8.93;3.20;;;13.30;99.90;;;;;;5050824;28;20120;-78
2023/06/30 03:02:40;;;;;;;11.55;2.90;;;13.20;99.90;;;;;;5049645;28;20045;-78
2023/06/30 03:05:07;;;;;;;8.05;2.67;;;13.20;99.90;;;;;;5050539;28;20073;-77
2023/06/30 03:07:32;;;;;;;4.13;2.47;;;13.20;99.90;;;;;;5049951;28;20325;-78
2023/06/30 03:09:58;;;;;;;7.90;3.08;;;13.20;99.90;;;;;;5049160;28;20037;-78
2023/06/30 03:12:23;;;;;;;9.80;3.38;;;13.10;99.90;;;;;;5065633;28;20381;-77
2023/06/30 03:14:49;;;;;;;7.50;2.80;;;13.10;99.90;;;;;;5033730;28;20119;-78
2023/06/30 03:17:14;;;;;;;8.65;2.90;;;13.10;99.90;;;;;;5049587;28;20064;-77
2023/06/30 03:19:40;;;;;;;9.10;2.58;;;13.10;99.90;;;;;;5050379;28;20413;-77
2023/06/30 03:22:05;;;;;;;11.00;2.78;;;13.10;99.90;;;;;;5050328;28;20047;-77
2023/06/30 03:24:31;;;;;;;9.18;3.00;;;13.10;99.90;;;;;;5049453;28;20128;-77
2023/06/30 03:26:56;;;;;;;11.50;3.00;;;13.00;99.90;;;;;;5049603;28;20068;-77
2023/06/30 03:29:22;;;;;;;7.50;2.80;;;13.00;99.90;;;;;;5049040;28;20120;-77
2023/06/30 03:31:48;;;;;;;8.13;2.70;;;13.00;99.90;;;;;;5046944;28;20033;-77
2023/06/30 03:34:13;;;;;;;11.80;3.00;;;13.00;99.90;;;;;;5048308;28;20087;-77
2023/06/30 03:36:39;;;;;;;9.63;2.70;;;13.00;99.90;;;;;;5045820;28;20036;-78
2023/06/30 03:39:05;;;;;;;6.88;2.92;;;13.00;99.90;;;;;;5049676;28;20431;-78
2023/06/30 03:41:31;;;;;;;11.05;3.17;;;13.00;99.90;;;;;;5047491;28;20055;-78
2023/06/30 03:43:56;;;;;;;6.10;2.95;;;13.00;99.90;;;;;;5049326;28;20073;-77
2023/06/30 03:46:22;;;;;;;7.68;3.15;;;12.90;99.90;;;;;;5049977;28;20036;-78
2023/06/30 03:48:47;;;;;;;6.00;2.80;;;12.90;99.90;;;;;;5031693;28;20033;-77
2023/06/30 03:51:14;;;;;;;9.00;3.10;;;12.90;99.90;;;;;;5048232;28;20500;-78
2023/06/30 03:53:42;;;;;;;9.00;2.85;;;12.90;99.90;;;;;;5048846;28;20083;-77
2023/06/30 03:56:08;;;;;;;8.50;2.60;;;12.90;99.90;;;;;;5048418;28;20087;-77
2023/06/30 03:58:34;;;;;;;10.63;3.25;;;12.90;99.90;;;;;;5049051;28;20033;-77
2023/06/30 04:00:59;;;;;;;7.68;2.60;;;12.90;99.90;;;;;;5048055;28;20029;-78
2023/06/30 04:03:25;;;;;;;6.47;2.80;;;12.90;99.90;;;;;;5031504;28;20385;-77
2023/06/30 04:05:51;;;;;;;6.32;2.72;;;12.90;99.90;;;;;;5048953;28;20044;-78
2023/06/30 04:08:16;;;;;;;5.15;2.72;;;13.00;99.90;;;;;;5049182;28;20033;-77
2023/06/30 04:10:43;;;;;;;7.53;2.83;;;13.00;99.90;;;;;;5031888;28;20079;-77
2023/06/30 04:13:09;;;;;;;6.75;2.78;;;13.10;99.90;;;;;;5047580;28;20029;-77
2023/06/30 04:15:35;;;;;;;9.10;2.97;;;13.10;99.90;;;;;;5048574;28;20032;-78
2023/06/30 04:18:00;;;;;;;6.32;2.58;;;13.20;99.90;;;;;;5048383;28;20519;-77
2023/06/30 04:20:26;;;;;;;6.18;2.85;;;13.20;99.90;;;;;;5049069;28;20056;-78
2023/06/30 04:22:51;;;;;;;4.95;2.90;;;13.20;99.90;;;;;;5048863;28;20045;-77
2023/06/30 04:25:17;;;;;;;6.75;3.10;;;13.30;99.90;;;;;;5050505;28;20041;-77
2023/06/30 04:27:43;;;;;;;8.07;2.88;;;13.40;99.90;;;;;;5048135;28;20037;-77
2023/06/30 04:30:09;;;;;;;8.07;2.75;;;13.40;99.90;;;;;;5049394;28;20085;-77
2023/06/30 04:32:35;;;;;;;7.85;2.92;;;13.50;99.90;;;;;;5049332;28;20025;-78
2023/06/30 04:35:00;;;;;;;7.68;2.80;;;13.60;99.90;;;;;;5049483;28;20462;-78
2023/06/30 04:37:29;;;;;;;6.30;2.70;;;13.60;99.90;;;;;;5049254;28;20040;-78
2023/06/30 04:39:56;;;;;;;4.32;2.60;;;13.70;99.90;;;;;;5049701;28;20561;-78
2023/06/30 04:42:22;;;;;;;7.60;2.80;;;13.70;99.90;;;;;;5049240;28;20036;-78
2023/06/30 04:44:47;;;;;;;8.65;2.95;;;13.80;99.90;;;;;;5049517;28;20174;-77
2023/06/30 04:47:15;;;;;;;7.32;2.95;;;13.90;99.90;;;;;;5049728;28;20502;-78
2023/06/30 04:49:41;;;;;;;5.43;2.78;;;13.90;99.90;;;;;;5049562;28;20434;-77
2023/06/30 04:52:06;;;;;;;7.97;2.85;;;14.00;99.90;;;;;;5047290;28;20037;-77
2023/06/30 04:54:32;;;;;;;6.45;2.83;;;14.10;99.90;;;;;;5049142;28;20036;-78
2023/06/30 04:56:58;;;;;;;11.77;3.42;;;14.10;99.90;;;;;;5049508;28;20107;-77
2023/06/30 04:59:23;;;;;;;6.55;3.25;;;14.20;99.90;;;;;;5049555;28;20047;-78
2023/06/30 05:01:49;;;;;;;6.88;2.75;;;14.20;99.90;;;;;;5049308;28;20087;-78
2023/06/30 05:04:15;;;;;;;7.00;3.20;;;14.30;99.90;;;;;;5050474;28;20029;-77
2023/06/30 05:06:41;;;;;;;6.05;2.92;;;14.30;99.90;;;;;;5049151;28;20029;-77
2023/06/30 05:09:06;;;;;;;8.27;3.15;;;14.40;99.90;;;;;;5049248;28;20091;-77
2023/06/30 05:11:32;;;;;;;8.43;2.95;;;14.50;99.90;;;;;;5031473;28;20052;-77
2023/06/30 05:13:58;;;;;;;5.32;2.42;;;14.60;99.90;;;;;;5057262;28;20037;-77
2023/06/30 05:16:24;;;;;;;6.35;2.90;;;14.60;99.90;;;;;;5050328;28;20033;-77
2023/06/30 05:18:49;;;;;;;6.05;2.78;;;14.70;99.90;;;;;;5053111;28;20572;-77
2023/06/30 05:21:15;;;;;;;7.82;3.00;;;14.80;99.90;;;;;;5035992;28;20527;-77
2023/06/30 05:23:40;;;;;;;8.75;2.53;;;14.90;99.90;;;;;;5055398;28;20675;-77
2023/06/30 05:26:06;;;;;;;14.38;3.17;;;15.00;99.90;;;;;;5069610;28;20119;-77
2023/06/30 05:28:34;;;;;;;9.20;2.75;;;15.10;99.90;;;;;;5052340;28;20056;-77
2023/06/30 05:31:00;;;;;;;5.43;2.70;;;15.30;99.90;;;;;;5052453;28;20041;-78
2023/06/30 05:33:25;;;;;;;5.80;2.60;;;15.40;99.90;;;;;;5050989;28;20033;-77
2023/06/30 05:35:51;;;;;;;6.50;2.72;;;15.60;99.90;;;;;;5050002;28;20040;-77
2023/06/30 05:38:17;;;;;;;6.57;2.72;;;15.70;99.90;;;;;;5034571;28;20044;-77
2023/06/30 05:40:42;;;;;;;7.00;2.55;;;15.70;99.90;;;;;;5052460;28;20087;-77
2023/06/30 05:43:08;;;;;;;6.95;2.65;;;15.60;99.90;;;;;;5052444;28;20036;-75
2023/06/30 05:45:33;;;;;;;8.43;3.33;;;15.60;99.90;;;;;;5052689;28;20032;-77
2023/06/30 05:47:59;;;;;;;7.93;2.50;;;15.60;99.90;;;;;;5052785;28;20063;-77
2023/06/30 05:50:27;;;;;;;8.45;2.83;;;15.70;99.90;;;;;;5051904;28;20036;-77
2023/06/30 05:52:52;;;;;;;7.72;2.88;;;15.80;99.90;;;;;;5053629;28;20040;-77
2023/06/30 05:55:18;;;;;;;6.60;2.38;;;15.80;99.90;;;;;;5052378;28;20090;-77
2023/06/30 05:57:43;;;;;;;7.07;2.63;;;15.60;99.90;;;;;;5052525;28;20032;-77
2023/06/30 06:00:10;;;;;;;8.95;2.38;;;15.60;99.90;;;;;;5035685;28;20037;-77
2023/06/30 06:02:36;;;;;;;7.53;2.30;;;15.70;99.90;;;;;;5052016;28;20072;-77
2023/06/30 06:05:02;;;;;;;6.03;2.50;;;15.90;99.90;;;;;;5035361;28;20099;-77
2023/06/30 06:07:27;;;;;;;11.43;2.72;;;16.00;99.90;;;;;;5052113;28;20128;-77
2023/06/30 06:09:53;;;;;;;7.82;2.33;;;16.20;99.90;;;;;;5050406;28;20080;-77
2023/06/30 06:12:19;;;;;;;10.80;2.65;;;16.30;99.90;;;;;;5054134;28;20055;-77
2023/06/30 06:14:44;;;;;;;6.82;2.50;;;16.50;99.90;;;;;;5052005;28;20557;-77
2023/06/30 06:17:10;;;;;;;9.02;2.70;;;16.50;99.90;;;;;;5052046;28;20090;-75
2023/06/30 06:19:36;;;;;;;6.72;1.90;;;16.60;99.90;;;;;;5051529;28;20068;-76
2023/06/30 06:22:01;;;;;;;4.93;2.33;;;16.60;99.90;;;;;;5051389;28;20052;-76
2023/06/30 06:24:27;;;;;;;5.55;2.05;;;16.70;99.90;;;;;;5052061;28;20041;-76
2023/06/30 06:26:52;;;;;;;5.10;1.70;;;16.70;99.90;;;;;;5068937;28;20041;-77
2023/06/30 06:29:21;;;;;;;11.85;2.55;;;16.90;99.90;;;;;;5050926;28;20040;-79
2023/06/30 06:31:49;;;;;;;8.45;1.85;;;16.90;99.90;;;;;;5039794;28;20512;-77
2023/06/30 06:34:15;;;;;;;4.97;1.60;;;17.10;99.90;;;;;;5041323;28;20403;-77
2023/06/30 06:36:40;;;;;;;4.82;1.80;;;17.20;99.90;;;;;;5050557;28;20123;-77
2023/06/30 06:39:06;;;;;;;5.97;1.70;;;17.40;99.90;;;;;;5051433;28;20171;-77
2023/06/30 06:41:32;;;;;;;4.13;1.58;;;17.40;99.90;;;;;;5049549;28;20094;-76
2023/06/30 06:43:57;;;;;;;4.65;1.45;;;17.40;99.90;;;;;;5048756;28;20036;-77
2023/06/30 06:46:23;;;;;;;8.57;1.70;;;17.50;99.90;;;;;;5050247;28;20040;-76
2023/06/30 06:48:48;;;;;;;8.38;2.25;;;17.50;99.90;;;;;;5050866;28;20037;-76
2023/06/30 06:51:14;;;;;;;5.60;1.55;;;17.50;99.90;;;;;;5050685;28;20086;-76
2023/06/30 06:53:40;;;;;;;8.23;1.50;;;17.50;99.90;;;;;;5047793;28;20036;-76
2023/06/30 06:56:06;;;;;;;6.90;1.92;;;17.40;99.90;;;;;;5050663;28;20051;-76
2023/06/30 06:58:35;;;;;;;6.30;1.45;;;17.60;99.90;;;;;;5061547;28;20059;-76
2023/06/30 07:01:01;;;;;;;5.05;1.38;;;17.60;99.90;;;;;;5040851;28;20586;-76
2023/06/30 07:03:26;;;;;;;13.52;2.10;;;17.50;99.90;;;;;;5050827;28;20095;-75
2023/06/30 07:05:53;;;;;;;7.75;1.73;;;17.50;99.90;;;;;;5049326;28;20385;-77
2023/06/30 07:08:19;;;;;;;5.70;1.70;;;17.60;99.90;;;;;;5050790;28;20041;-76
2023/06/30 07:10:46;;;;;;;4.55;1.50;;;17.70;99.90;;;;;;5049221;28;20048;-77
2023/06/30 07:13:13;;;;;;;3.58;1.52;;;17.70;99.90;;;;;;5046420;28;20041;-76
2023/06/30 07:15:39;;;;;;;5.20;1.73;;;18.00;99.90;;;;;;5051937;28;20108;-77
2023/06/30 07:18:04;;;;;;;7.10;1.60;;;17.80;99.90;;;;;;5052494;28;20068;-76
2023/06/30 07:20:30;;;;;;;5.00;1.17;;;17.80;99.90;;;;;;5051883;28;20122;-76
2023/06/30 07:22:56;;;;;;;6.10;1.67;;;17.90;99.90;;;;;;5059309;28;20048;-77
2023/06/30 07:25:23;;;;;;;5.82;1.50;;;18.00;99.90;;;;;;5050151;28;20036;-76
2023/06/30 07:27:53;;;;;;;5.05;1.40;;;18.20;99.90;;;;;;5033341;28;20090;-76
2023/06/30 07:30:25;;;;;;;5.78;1.45;;;18.20;99.90;;;;;;5034032;28;20117;-77
2023/06/30 07:32:51;;;;;;;10.48;1.50;;;18.40;99.90;;;;;;5065431;28;20032;-76
2023/06/30 07:35:17;;;;;;;5.22;1.50;;;18.50;99.90;;;;;;5050672;28;20728;-76
2023/06/30 07:37:44;;;;;;;4.95;1.33;;;18.30;99.90;;;;;;5065852;28;20155;-76
2023/06/30 07:40:10;;;;;;;8.02;1.50;;;18.40;99.90;;;;;;5041592;28;20075;-76
2023/06/30 07:42:38;;;;;;;6.18;1.63;;;18.50;99.90;;;;;;5048860;28;20056;-76
2023/06/30 07:45:06;;;;;;;5.65;1.52;;;18.60;99.90;;;;;;5049121;28;20119;-76
2023/06/30 07:47:32;;;;;;;4.65;1.50;;;18.70;99.90;;;;;;5032317;28;20037;-76
2023/06/30 07:49:57;;;;;;;3.45;1.20;;;18.80;99.90;;;;;;5049938;28;20049;-76
2023/06/30 07:52:23;;;;;;;6.50;1.42;;;19.00;99.90;;;;;;5050321;28;20033;-76
2023/06/30 07:54:52;;;;;;;6.80;1.50;;;19.00;99.90;;;;;;5043588;28;20036;-76
2023/06/30 07:57:17;;;;;;;4.78;1.40;;;18.80;99.90;;;;;;5050811;28;20147;-76
2023/06/30 07:59:42;;;;;;;6.10;1.60;;;18.80;99.90;;;;;;5048073;28;20044;-75
2023/06/30 08:02:08;;;;;;;5.68;1.30;;;18.70;99.90;;;;;;5048385;28;20037;-77
2023/06/30 08:04:35;;;;;;;4.95;1.40;;;18.90;99.90;;;;;;5050028;28;20079;-76
2023/06/30 08:07:01;;;;;;;2.65;1.25;;;18.90;99.90;;;;;;5050993;28;20045;-78
2023/06/30 08:09:26;;;;;;;3.50;1.20;;;18.70;99.90;;;;;;5047378;28;20033;-77
2023/06/30 08:11:52;;;;;;;7.18;1.27;;;18.60;99.90;;;;;;5028533;28;20033;-77
2023/06/30 08:14:17;;;;;;;6.45;1.58;;;18.80;99.90;;;;;;5047102;28;20048;-77
2023/06/30 08:16:43;;;;;;;4.78;1.38;;;18.40;99.90;;;;;;5044964;28;20037;-76
2023/06/30 08:19:08;;;;;;;3.58;1.30;;;18.00;99.90;;;;;;5046865;28;20037;-76
2023/06/30 08:21:34;;;;;;;6.32;1.30;;;17.80;99.90;;;;;;5053177;28;20092;-76
2023/06/30 08:23:59;;;;;;;3.42;1.15;;;17.60;99.90;;;;;;5047874;28;20502;-76
2023/06/30 08:26:25;;;;;;;4.35;1.30;;;17.80;99.90;;;;;;5047985;28;20033;-78
2023/06/30 08:28:50;;;;;;;3.88;1.25;;;18.10;99.90;;;;;;5063355;28;20119;-76
2023/06/30 08:31:16;;;;;;;4.93;1.48;;;18.50;99.90;;;;;;5043173;28;20037;-77
2023/06/30 08:33:41;;;;;;;5.90;1.20;;;18.50;99.90;;;;;;5045252;28;20127;-76
2023/06/30 08:36:07;;;;;;;3.50;0.88;;;18.40;99.90;;;;;;5056974;28;20040;-76
2023/06/30 08:38:33;;;;;;;5.30;1.45;;;18.60;99.90;;;;;;5049488;28;20033;-76
2023/06/30 08:40:59;;;;;;;6.32;1.50;;;18.90;99.90;;;;;;5047952;28;20130;-76
2023/06/30 08:43:28;;;;;;;3.28;0.90;;;18.90;99.90;;;;;;5033653;28;20037;-77
2023/06/30 08:45:54;;;;;;;4.53;1.30;;;19.20;99.90;;;;;;5047786;28;20037;-77
2023/06/30 08:48:22;;;;;;;2.47;1.10;;;19.20;99.90;;;;;;5048002;28;20507;-77
2023/06/30 08:50:49;;;;;;;4.70;1.23;;;19.40;99.90;;;;;;5048485;28;20502;-76
2023/06/30 08:53:18;;;;;;;6.57;1.23;;;19.40;99.90;;;;;;5052886;28;20056;-76
2023/06/30 08:55:45;;;;;;;4.60;1.10;;;19.50;99.90;;;;;;5053088;28;20162;-76
2023/06/30 08:58:12;;;;;;;2.05;1.02;;;19.40;99.90;;;;;;5062002;28;20773;-76
2023/06/30 09:00:37;;;;;;;4.80;1.10;;;19.50;99.90;;;;;;5053823;28;20415;-76
2023/06/30 09:03:04;;;;;;;3.65;1.00;;;19.50;99.90;;;;;;5053394;28;20049;-76
2023/06/30 09:05:32;;;;;;;2.88;1.00;;;19.80;99.90;;;;;;5048064;28;20048;-76
2023/06/30 09:07:57;;;;;;;3.75;0.93;;;20.10;99.90;;;;;;5053460;28;20041;-76
2023/06/30 09:10:28;;;;;;;3.67;1.33;;;20.50;99.90;;;;;;5053172;28;20043;-77
2023/06/30 09:13:00;;;;;;;2.17;1.10;;;20.50;99.90;;;;;;5053098;28;20047;-77
2023/06/30 09:15:25;;;;;;;6.22;1.35;;;20.30;99.90;;;;;;5053237;28;20029;-77
2023/06/30 09:17:52;;;;;;;4.95;1.20;;;20.00;99.90;;;;;;5052953;28;20496;-76
2023/06/30 09:20:20;;;;;;;6.22;1.02;;;19.90;99.90;;;;;;5053176;28;20098;-76
2023/06/30 09:22:46;;;;;;;1.80;0.90;;;20.00;99.90;;;;;;5052823;28;20045;-76
2023/06/30 09:25:27;;;;;;;3.58;1.10;;;20.20;99.90;;;;;;5051865;28;20037;-76
2023/06/30 09:27:56;;;;;;;4.63;1.58;;;20.60;99.90;;;;;;5051993;28;20033;-76
2023/06/30 09:30:35;;;;;;;4.72;1.48;;;20.80;99.90;;;;;;5052248;28;20037;-76
2023/06/30 09:33:01;;;;;;;61.92;4.45;;;21.10;99.90;;;;;;5035362;28;20140;-75
2023/06/30 09:35:37;;;;;;;5.40;1.60;;;21.10;99.90;;;;;;5035550;28;20120;-75
2023/06/30 09:38:02;;;;;;;3.13;1.00;;;20.50;99.90;;;;;;5050921;28;20047;-75
2023/06/30 09:40:28;;;;;;;3.58;1.20;;;19.90;99.90;;;;;;5052746;28;20032;-77
2023/06/30 09:42:54;;;;;;;5.00;0.88;;;19.60;99.90;;;;;;5051150;28;20037;-75
2023/06/30 09:45:20;;;;;;;2.20;0.90;;;19.50;99.90;;;;;;5052740;28;20123;-76
2023/06/30 09:47:52;;;;;;;5.45;1.38;;;19.80;99.90;;;;;;5052769;28;20157;-76
2023/06/30 09:50:25;;;;;;;4.25;1.38;;;20.10;99.90;;;;;;5052388;28;20048;-75
2023/06/30 09:52:51;;;;;;;4.85;1.33;;;20.10;99.90;;;;;;5052242;28;20029;-75
2023/06/30 09:55:17;;;;;;;7.00;1.23;;;19.90;99.90;;;;;;5052729;28;20497;-75
2023/06/30 09:57:46;;;;;;;3.33;1.08;;;19.50;99.90;;;;;;5052742;28;20504;-75
2023/06/30 10:00:13;;;;;;;15.93;1.15;;;19.30;99.90;;;;;;5052277;28;20086;-75
2023/06/30 10:02:40;;;;;;;4.82;1.27;;;19.30;99.90;;;;;;5051556;28;20066;-75
2023/06/30 10:05:07;;;;;;;2.90;1.10;;;19.60;99.90;;;;;;5052367;28;20052;-77
2023/06/30 10:07:33;;;;;;;5.18;1.10;;;19.70;99.90;;;;;;5052554;28;20385;-76
2023/06/30 10:10:00;;;;;;;4.03;0.95;;;19.70;99.90;;;;;;5052067;28;20087;-75
2023/06/30 10:12:27;;;;;;;3.28;1.10;;;20.10;99.90;;;;;;5051933;28;20559;-74
2023/06/30 10:14:53;;;;;;;50.50;4.20;;;20.20;99.90;;;;;;5052129;28;20111;-76
2023/06/30 10:17:19;;;;;;;8.85;1.67;;;20.00;99.90;;;;;;5035274;28;20065;-77
2023/06/30 10:19:45;;;;;;;11.88;1.63;;;19.80;99.90;;;;;;5052069;28;20420;-76
2023/06/30 10:22:12;;;;;;;9.45;1.52;;;19.70;99.90;;;;;;5051628;28;20041;-76
2023/06/30 10:24:41;;;;;;;6.53;1.33;;;19.90;99.90;;;;;;5051885;28;20040;-76
2023/06/30 10:27:09;;;;;;;3.90;1.33;;;20.30;99.90;;;;;;5051897;28;20106;-76
2023/06/30 10:29:35;;;;;;;2.83;0.90;;;20.40;99.90;;;;;;5051883;28;20036;-75
2023/06/30 10:32:01;;;;;;;2.00;0.73;;;20.40;99.90;;;;;;5034763;28;20033;-77
2023/06/30 10:34:29;;;;;;;3.90;1.00;;;20.30;99.90;;;;;;5051917;28;20075;-76
2023/06/30 10:36:55;;;;;;;4.35;1.20;;;20.40;99.90;;;;;;5051638;28;20512;-77
2023/06/30 10:39:20;;;;;;;2.13;1.13;;;20.80;99.90;;;;;;5051183;28;20044;-75
2023/06/30 10:41:47;;;;;;;2.50;1.00;;;21.10;99.90;;;;;;5050952;28;20068;-76
2023/06/30 10:44:13;;;;;;;4.00;1.58;;;21.40;99.90;;;;;;5050988;28;20077;-76
2023/06/30 10:46:52;;;;;;;2.25;1.10;;;21.40;99.90;;;;;;5050265;28;20079;-76
2023/06/30 10:49:35;;;;;;;6.70;1.23;;;21.50;99.90;;;;;;5033233;28;20084;-77
2023/06/30 10:52:10;;;;;;;5.88;1.73;;;21.40;99.90;;;;;;5052451;28;20037;-75
2023/06/30 10:54:41;;;;;;;3.33;1.17;;;21.30;99.90;;;;;;5060019;28;20041;-77
2023/06/30 10:57:18;;;;;;;3.25;1.25;;;21.20;99.90;;;;;;5065041;28;20039;-76
2023/06/30 10:59:45;;;;;;;3.58;1.20;;;21.30;99.90;;;;;;5045512;28;20059;-76
2023/06/30 11:02:12;;;;;;;3.60;1.27;;;21.20;99.90;;;;;;5064642;28;20072;-75
2023/06/30 11:04:42;;;;;;;4.53;1.20;;;21.20;99.90;;;;;;5048356;28;20399;-76
2023/06/30 11:07:10;;;;;;;2.97;1.20;;;21.30;99.90;;;;;;5045611;28;20091;-76
2023/06/30 11:09:48;;;;;;;2.47;1.00;;;21.60;99.90;;;;;;5032044;28;20040;-76
2023/06/30 11:12:24;;;;;;;2.72;1.30;;;21.80;99.90;;;;;;5060204;28;20519;-75
2023/06/30 11:14:59;;;;;;;4.03;1.23;;;21.90;99.90;;;;;;5057725;28;20527;-75
2023/06/30 11:17:50;;;;;;;3.00;1.30;;;21.80;99.90;;;;;;5049436;28;20029;-75
2023/06/30 11:20:16;;;;;;;9.05;1.60;;;21.60;99.90;;;;;;5064723;28;20124;-75
2023/06/30 11:22:59;;;;;;;4.13;1.42;;;21.40;99.90;;;;;;5048215;28;20381;-75
2023/06/30 11:25:24;;;;;;;4.22;1.50;;;21.20;99.90;;;;;;5044639;28;20064;-77
2023/06/30 11:27:50;;;;;;;4.75;1.50;;;21.00;99.90;;;;;;5048103;28;20068;-78
2023/06/30 11:30:18;;;;;;;4.35;1.67;;;21.00;99.90;;;;;;5048637;28;20078;-77
2023/06/30 11:32:45;;;;;;;3.40;1.30;;;21.40;99.90;;;;;;5049792;28;20067;-75
2023/06/30 11:35:12;;;;;;;3.03;1.20;;;21.80;99.90;;;;;;5050633;28;20032;-75
2023/06/30 11:37:38;;;;;;;6.10;1.70;;;21.80;99.90;;;;;;5049354;28;20082;-76
2023/06/30 11:40:05;;;;;;;3.63;1.58;;;21.70;99.90;;;;;;5048235;28;20044;-76
2023/06/30 11:42:32;;;;;;;3.70;1.33;;;21.70;99.90;;;;;;5046008;28;20043;-76
2023/06/30 11:44:57;;;;;;;3.38;1.33;;;21.70;99.90;;;;;;5045992;28;20107;-75
2023/06/30 11:47:23;;;;;;;3.33;1.20;;;21.70;99.90;;;;;;5047380;28;20079;-76
2023/06/30 11:49:50;;;;;;;4.65;1.42;;;21.80;99.90;;;;;;5046890;28;20496;-76
2023/06/30 11:52:17;;;;;;;3.05;1.27;;;21.90;99.80;;;;;;5048931;28;20033;-76
2023/06/30 11:54:43;;;;;;;4.88;1.50;;;22.10;99.90;;;;;;5055117;28;20033;-75
2023/06/30 11:57:09;;;;;;;4.78;1.52;;;22.40;99.90;;;;;;5057688;28;20025;-78
2023/06/30 11:59:36;;;;;;;4.70;1.50;;;22.70;99.90;;;;;;5050514;28;20117;-76
2023/06/30 12:02:03;;;;;;;5.20;1.23;;;22.60;99.40;;;;;;5055935;28;20037;-77
2023/06/30 12:04:34;;;;;;;2.75;1.23;;;22.80;99.10;;;;;;5031513;28;20045;-77
2023/06/30 12:07:03;;;;;;;4.53;1.75;;;23.20;99.30;;;;;;5049927;28;20064;-77
2023/06/30 12:09:29;;;;;;;1.80;1.10;;;23.60;99.10;;;;;;5049278;28;20133;-77
2023/06/30 12:11:56;;;;;;;2.47;1.00;;;23.60;97.90;;;;;;5049624;28;20072;-77
2023/06/30 12:14:25;;;;;;;2.08;0.90;;;23.30;98.00;;;;;;5048371;28;20037;-76
2023/06/30 12:16:54;;;;;;;4.30;1.30;;;22.90;97.50;;;;;;5049795;28;20037;-78
2023/06/30 12:19:24;;;;;;;5.50;1.40;;;22.40;96.90;;;;;;5046841;28;20043;-75
2023/06/30 12:21:51;;;;;;;3.75;1.60;;;22.20;97.30;;;;;;5058285;28;20040;-76
2023/06/30 12:24:18;;;;;;;4.93;1.50;;;22.50;97.70;;;;;;5047896;28;20036;-77
2023/06/30 12:26:44;;;;;;;2.92;1.35;;;23.20;98.40;;;;;;5048492;28;20106;-75
2023/06/30 12:29:09;;;;;;;4.55;1.30;;;23.80;98.10;;;;;;5040703;28;20032;-75
2023/06/30 12:31:35;;;;;;;2.33;1.00;;;24.30;97.80;;;;;;5047195;28;20052;-76
2023/06/30 12:34:00;;;;;;;5.40;1.30;;;24.40;97.30;;;;;;5048757;28;20120;-75
2023/06/30 12:36:29;;;;;;;2.88;1.17;;;24.70;97.40;;;;;;5049088;28;20040;-76
2023/06/30 12:38:55;;;;;;;4.28;1.40;;;25.10;97.10;;;;;;5048804;28;20522;-76
2023/06/30 12:41:21;;;;;;;3.97;1.13;;;25.30;96.60;;;;;;5047576;28;20036;-78
2023/06/30 12:43:48;;;;;;;3.47;1.55;;;25.60;96.10;;;;;;5048734;28;20033;-76